createdAt,value
2019-04-14T00:00:03.437Z,3.07
2019-04-14T00:01:02.513Z,3.07
2019-04-14T00:02:03.175Z,3.03
2019-04-14T00:03:02.486Z,3.05
2019-04-14T00:04:03.053Z,3.05
2019-04-14T00:05:02.460Z,3.00
2019-04-14T00:06:02.693Z,2.93
2019-04-14T00:07:03.601Z,2.86
2019-04-14T00:08:02.475Z,2.93
2019-04-14T00:09:03.224Z,2.86
2019-04-14T00:10:02.935Z,2.82
2019-04-14T00:11:02.379Z,2.85
2019-04-14T00:12:05.820Z,2.90
2019-04-14T00:13:02.549Z,2.87
2019-04-14T00:14:03.174Z,2.85
2019-04-14T00:15:02.550Z,2.93
2019-04-14T00:16:03.155Z,2.90
2019-04-14T00:17:02.305Z,2.98
2019-04-14T00:18:03.201Z,3.03
2019-04-14T00:19:02.350Z,3.04
2019-04-14T00:20:03.230Z,3.04
2019-04-14T00:21:02.299Z,3.04
2019-04-14T00:22:03.248Z,3.03
2019-04-14T00:23:02.257Z,3.01
2019-04-14T00:24:03.066Z,3.03
2019-04-14T00:25:02.467Z,3.11
2019-04-14T00:26:03.003Z,3.13
2019-04-14T00:27:02.171Z,3.04
2019-04-14T00:28:03.022Z,3.10
2019-04-14T00:29:02.699Z,3.14
2019-04-14T00:30:03.293Z,3.11
2019-04-14T00:31:02.353Z,3.08
2019-04-14T00:32:03.078Z,3.07
2019-04-14T00:33:02.085Z,3.13
2019-04-14T00:34:02.910Z,3.05
2019-04-14T00:35:02.070Z,2.98
2019-04-14T00:36:02.308Z,3.03
2019-04-14T00:37:03.346Z,3.03
2019-04-14T00:38:02.405Z,3.04
2019-04-14T00:39:03.122Z,3.05
2019-04-14T00:40:02.055Z,3.19
2019-04-14T00:41:02.900Z,3.19
2019-04-14T00:42:03.523Z,3.05
2019-04-14T00:43:02.777Z,3.10
2019-04-14T00:44:01.946Z,3.14
2019-04-14T00:45:02.865Z,3.11
2019-04-14T00:46:02.688Z,3.13
2019-04-14T00:47:02.853Z,3.10
2019-04-14T00:48:09.260Z,3.13
2019-04-14T00:49:02.825Z,3.11
2019-04-14T00:50:01.855Z,3.13
2019-04-14T00:51:02.758Z,3.05
2019-04-14T00:52:01.936Z,3.11
2019-04-14T00:53:01.815Z,3.18
2019-04-14T00:54:02.246Z,3.14
2019-04-14T00:55:01.798Z,3.19
2019-04-14T00:56:02.031Z,3.10
2019-04-14T00:57:03.092Z,3.05
2019-04-14T00:58:01.744Z,3.08
2019-04-14T00:59:02.805Z,3.10
2019-04-14T01:00:01.882Z,3.08
2019-04-14T01:01:02.733Z,3.05
2019-04-14T01:02:01.695Z,2.95
2019-04-14T01:03:02.544Z,2.95
2019-04-14T01:04:01.665Z,3.05
2019-04-14T01:05:02.546Z,3.04
2019-04-14T01:06:01.640Z,2.98
2019-04-14T01:07:02.211Z,3.03
2019-04-14T01:08:01.612Z,3.13
2019-04-14T01:09:02.139Z,3.07
2019-04-14T01:10:01.838Z,3.08
2019-04-14T01:11:01.572Z,3.01
2019-04-14T01:12:01.855Z,3.03
2019-04-14T01:13:02.692Z,3.04
2019-04-14T01:14:01.651Z,3.11
2019-04-14T01:15:02.962Z,3.04
2019-04-14T01:16:08.910Z,3.05
2019-04-14T01:17:02.645Z,3.05
2019-04-14T01:18:01.549Z,3.10
2019-04-14T01:19:02.556Z,3.04
2019-04-14T01:20:01.530Z,3.01
2019-04-14T01:21:02.505Z,3.08
2019-04-14T01:22:01.433Z,3.07
2019-04-14T01:23:02.046Z,2.93
2019-04-14T01:24:01.402Z,2.95
2019-04-14T01:25:02.314Z,2.89
2019-04-14T01:26:01.376Z,2.92
2019-04-14T01:27:01.697Z,2.83
2019-04-14T01:28:02.407Z,2.83
2019-04-14T01:29:01.485Z,2.83
2019-04-14T01:30:02.565Z,2.92
2019-04-14T01:31:01.304Z,2.82
2019-04-14T01:32:02.342Z,2.82
2019-04-14T01:33:01.285Z,2.75
2019-04-14T01:34:01.981Z,2.79
2019-04-14T01:35:01.269Z,2.79
2019-04-14T01:36:01.765Z,2.83
2019-04-14T01:37:01.224Z,2.80
2019-04-14T01:38:01.645Z,2.79
2019-04-14T01:39:02.453Z,2.77
2019-04-14T01:40:01.184Z,2.79
2019-04-14T01:41:02.133Z,2.79
2019-04-14T01:42:01.153Z,2.74
2019-04-14T01:43:01.705Z,2.83
2019-04-14T01:44:02.424Z,2.85
2019-04-14T01:45:01.427Z,2.72
2019-04-14T01:46:09.651Z,2.83
2019-04-14T01:47:03.030Z,2.82
2019-04-14T01:48:01.719Z,2.83
2019-04-14T01:49:01.057Z,2.89
2019-04-14T01:50:01.787Z,2.75
2019-04-14T01:51:01.037Z,2.82
2019-04-14T01:52:01.388Z,2.72
2019-04-14T01:53:01.179Z,2.79
2019-04-14T01:54:01.795Z,2.71
2019-04-14T01:55:00.993Z,2.77
2019-04-14T01:56:01.308Z,2.79
2019-04-14T01:57:00.948Z,2.74
2019-04-14T01:58:01.077Z,2.77
2019-04-14T01:59:02.134Z,2.79
2019-04-14T02:00:03.260Z,2.77
2019-04-14T02:01:01.911Z,2.69
2019-04-14T02:02:00.901Z,2.80
2019-04-14T02:03:01.940Z,2.79
2019-04-14T02:04:00.853Z,2.77
2019-04-14T02:05:01.808Z,2.77
2019-04-14T02:06:00.825Z,2.77
2019-04-14T02:07:01.630Z,2.80
2019-04-14T02:08:00.813Z,2.82
2019-04-14T02:09:01.190Z,2.72
2019-04-14T02:10:01.990Z,2.92
2019-04-14T02:11:00.974Z,2.86
2019-04-14T02:12:01.640Z,2.82
2019-04-14T02:13:00.737Z,2.97
2019-04-14T02:14:01.597Z,2.98
2019-04-14T02:15:00.702Z,2.93
2019-04-14T02:16:12.780Z,2.93
2019-04-14T02:17:03.142Z,2.92
2019-04-14T02:18:00.985Z,2.86
2019-04-14T02:19:00.656Z,2.98
2019-04-14T02:20:01.217Z,2.98
2019-04-14T02:21:00.638Z,3.03
2019-04-14T02:22:00.774Z,3.01
2019-04-14T02:23:01.671Z,3.05
2019-04-14T02:24:00.582Z,3.04
2019-04-14T02:25:01.460Z,2.95
2019-04-14T02:26:00.557Z,2.86
2019-04-14T02:27:01.282Z,2.82
2019-04-14T02:28:00.525Z,2.83
2019-04-14T02:29:01.419Z,2.86
2019-04-14T02:30:00.565Z,2.87
2019-04-14T02:31:13.921Z,2.87
2019-04-14T02:32:35.419Z,2.80
2019-04-14T02:33:32.172Z,2.82
2019-04-14T02:34:34.749Z,2.95
2019-04-14T02:35:35.161Z,2.98
2019-04-14T02:37:26.658Z,2.90
2019-04-14T02:38:36.012Z,2.85
2019-04-14T02:39:29.297Z,2.86
2019-04-14T02:40:39.329Z,2.80
2019-04-14T02:41:52.851Z,2.92
2019-04-14T02:42:42.003Z,2.86
2019-04-14T02:43:29.682Z,2.87
2019-04-14T02:44:30.262Z,2.86
2019-04-14T02:45:40.762Z,2.77
2019-04-14T02:46:35.715Z,2.72
2019-04-14T02:47:56.820Z,2.83
2019-04-14T02:48:36.138Z,2.82
2019-04-14T02:49:29.414Z,2.90
2019-04-14T02:50:24.541Z,2.92
2019-04-14T02:52:28.250Z,2.86
2019-04-14T02:53:23.995Z,2.92
2019-04-14T02:55:21.317Z,2.90
2019-04-14T02:57:26.909Z,2.85
2019-04-14T02:58:26.694Z,2.86
2019-04-14T02:59:28.924Z,2.77
2019-04-14T03:00:41.786Z,2.80
2019-04-14T03:02:30.225Z,2.83
2019-04-14T03:03:35.521Z,2.79
2019-04-14T03:04:25.984Z,2.80
2019-04-14T03:05:26.991Z,2.82
2019-04-14T03:06:25.257Z,2.82
2019-04-14T03:07:34.195Z,2.69
2019-04-14T03:08:25.638Z,2.77
2019-04-14T03:10:28.163Z,2.83
2019-04-14T03:11:24.548Z,2.82
2019-04-14T03:12:31.514Z,2.80
2019-04-14T03:13:31.814Z,2.74
2019-04-14T03:15:29.515Z,2.80
2019-04-14T03:16:29.733Z,2.79
2019-04-14T03:18:33.859Z,2.77
2019-04-14T03:19:27.540Z,2.69
2019-04-14T03:21:26.272Z,2.65
2019-04-14T03:22:32.910Z,2.82
2019-04-14T03:23:34.894Z,2.64
2019-04-14T03:24:30.786Z,2.57
2019-04-14T03:25:21.107Z,2.67
2019-04-14T03:26:24.950Z,2.67
2019-04-14T03:27:31.070Z,2.71
2019-04-14T03:28:38.758Z,2.67
2019-04-14T03:29:29.287Z,2.71
2019-04-14T03:33:48.449Z,2.79
2019-04-14T03:35:51.466Z,2.74
2019-04-14T03:36:59.724Z,2.79
2019-04-14T03:38:29.375Z,2.74
2019-04-14T03:39:31.927Z,2.65
2019-04-14T03:40:25.645Z,2.65
2019-04-14T03:41:42.836Z,2.65
2019-04-14T03:42:29.576Z,2.65
2019-04-14T03:43:28.320Z,2.69
2019-04-14T03:44:28.531Z,2.69
2019-04-14T03:45:39.403Z,2.75
2019-04-14T03:46:45.234Z,2.80
2019-04-14T03:48:48.597Z,2.82
2019-04-14T03:50:21.541Z,2.71
2019-04-14T03:51:26.369Z,2.72
2019-04-14T03:52:31.943Z,2.83
2019-04-14T03:53:32.135Z,2.74
2019-04-14T03:54:20.304Z,2.80
2019-04-14T03:55:17.431Z,2.79
2019-04-14T03:56:04.248Z,2.79
2019-04-14T03:56:59.855Z,2.83
2019-04-14T03:58:00.544Z,2.77
2019-04-14T03:58:59.835Z,2.80
2019-04-14T03:59:59.267Z,2.80
2019-04-14T04:00:59.772Z,2.82
2019-04-14T04:01:59.236Z,2.74
2019-04-14T04:02:59.790Z,2.62
2019-04-14T04:03:59.211Z,2.62
2019-04-14T04:04:59.873Z,2.72
2019-04-14T04:05:59.182Z,2.80
2019-04-14T04:06:59.640Z,2.79
2019-04-14T04:08:00.287Z,2.64
2019-04-14T04:08:59.651Z,2.72
2019-04-14T04:10:00.409Z,2.67
2019-04-14T04:10:59.779Z,2.72
2019-04-14T04:11:59.099Z,2.77
2019-04-14T04:12:59.724Z,2.67
2019-04-14T04:13:59.071Z,2.64
2019-04-14T04:14:59.660Z,2.64
2019-04-14T04:15:59.045Z,2.64
2019-04-14T04:16:59.482Z,2.67
2019-04-14T04:18:00.200Z,2.64
2019-04-14T04:19:05.528Z,2.67
2019-04-14T04:19:59.911Z,2.69
2019-04-14T04:20:58.976Z,2.56
2019-04-14T04:21:59.568Z,2.69
2019-04-14T04:22:58.949Z,2.61
2019-04-14T04:23:59.671Z,2.64
2019-04-14T04:24:58.923Z,2.57
2019-04-14T04:25:59.480Z,2.61
2019-04-14T04:26:58.896Z,2.57
2019-04-14T04:27:59.095Z,2.61
2019-04-14T04:28:58.874Z,2.60
2019-04-14T04:29:59.211Z,2.61
2019-04-14T04:30:58.838Z,2.62
2019-04-14T04:31:58.990Z,2.51
2019-04-14T04:32:59.996Z,2.54
2019-04-14T04:33:58.798Z,2.50
2019-04-14T04:34:59.847Z,2.44
2019-04-14T04:35:58.769Z,2.44
2019-04-14T04:36:59.585Z,2.29
2019-04-14T04:37:58.741Z,2.32
2019-04-14T04:38:59.622Z,2.26
2019-04-14T04:39:58.716Z,2.28
2019-04-14T04:40:59.409Z,2.22
2019-04-14T04:41:58.698Z,2.18
2019-04-14T04:42:59.087Z,2.13
2019-04-14T04:43:58.657Z,2.17
2019-04-14T04:44:59.554Z,2.14
2019-04-14T04:45:58.641Z,2.13
2019-04-14T04:46:59.132Z,2.06
2019-04-14T04:47:58.600Z,2.13
2019-04-14T04:49:08.287Z,2.11
2019-04-14T04:49:58.572Z,2.18
2019-04-14T04:50:58.653Z,2.14
2019-04-14T04:51:59.621Z,2.17
2019-04-14T04:52:58.529Z,2.10
2019-04-14T04:53:59.464Z,2.02
2019-04-14T04:54:58.500Z,2.04
2019-04-14T04:55:59.311Z,2.04
2019-04-14T04:56:58.472Z,1.78
2019-04-14T04:57:59.104Z,1.91
2019-04-14T04:58:58.930Z,1.78
2019-04-14T04:59:58.428Z,1.84
2019-04-14T05:00:59.590Z,1.84
2019-04-14T05:01:58.399Z,1.85
2019-04-14T05:02:59.323Z,1.95
2019-04-14T05:03:58.371Z,1.92
2019-04-14T05:04:59.129Z,2.02
2019-04-14T05:05:58.343Z,2.04
2019-04-14T05:06:59.233Z,2.04
2019-04-14T05:07:58.313Z,2.04
2019-04-14T05:08:59.137Z,2.13
2019-04-14T05:09:58.283Z,2.07
2019-04-14T05:10:58.921Z,2.11
2019-04-14T05:11:58.256Z,2.15
2019-04-14T05:12:58.604Z,2.25
2019-04-14T05:13:58.226Z,2.28
2019-04-14T05:14:58.855Z,2.31
2019-04-14T05:15:58.199Z,2.32
2019-04-14T05:16:59.294Z,2.29
2019-04-14T05:17:58.170Z,2.33
2019-04-14T05:19:11.421Z,2.38
2019-04-14T05:19:58.453Z,2.33
2019-04-14T05:20:58.131Z,2.44
2019-04-14T05:21:58.151Z,2.44
2019-04-14T05:22:59.302Z,2.46
2019-04-14T05:23:58.171Z,2.57
2019-04-14T05:24:59.208Z,2.57
2019-04-14T05:25:58.193Z,2.61
2019-04-14T05:26:59.167Z,2.69
2019-04-14T05:27:58.077Z,2.65
2019-04-14T05:28:59.045Z,2.65
2019-04-14T05:29:58.082Z,2.65
2019-04-14T05:30:58.948Z,2.69
2019-04-14T05:31:57.975Z,2.68
2019-04-14T05:32:58.736Z,2.68
2019-04-14T05:33:57.946Z,2.68
2019-04-14T05:34:58.699Z,2.71
2019-04-14T05:35:57.920Z,2.77
2019-04-14T05:36:58.476Z,2.75
2019-04-14T05:37:57.892Z,2.69
2019-04-14T05:38:58.121Z,2.80
2019-04-14T05:39:57.868Z,2.75
2019-04-14T05:40:58.361Z,2.75
2019-04-14T05:42:07.535Z,2.67
2019-04-14T05:42:58.030Z,2.75
2019-04-14T05:44:01.204Z,2.72
2019-04-14T05:44:57.917Z,2.71
2019-04-14T05:45:59.040Z,2.61
2019-04-14T05:46:57.917Z,2.53
2019-04-14T05:47:58.821Z,2.67
2019-04-14T05:48:57.900Z,2.67
2019-04-14T05:49:59.160Z,2.72
2019-04-14T05:50:57.850Z,2.68
2019-04-14T05:51:57.699Z,2.72
2019-04-14T05:52:57.967Z,2.71
2019-04-14T05:53:57.671Z,2.80
2019-04-14T05:54:57.945Z,2.74
2019-04-14T05:55:57.645Z,2.80
2019-04-14T05:56:57.960Z,2.75
2019-04-14T05:57:57.617Z,2.82
2019-04-14T05:58:57.985Z,2.74
2019-04-14T05:59:57.593Z,2.83
2019-04-14T06:00:57.990Z,2.85
2019-04-14T06:01:57.563Z,2.79
2019-04-14T06:02:57.549Z,2.82
2019-04-14T06:03:58.170Z,2.82
2019-04-14T06:04:57.523Z,3.04
2019-04-14T06:05:57.509Z,2.98
2019-04-14T06:06:57.495Z,2.93
2019-04-14T06:07:57.482Z,2.97
2019-04-14T06:08:57.468Z,2.98
2019-04-14T06:09:57.455Z,3.01
2019-04-14T06:10:57.442Z,2.98
2019-04-14T06:11:57.428Z,3.05
2019-04-14T06:12:57.414Z,3.05
2019-04-14T06:13:57.400Z,2.97
2019-04-14T06:14:57.390Z,2.97
2019-04-14T06:15:57.374Z,3.00
2019-04-14T06:16:57.361Z,2.95
2019-04-14T06:17:57.347Z,3.07
2019-04-14T06:18:57.335Z,2.97
2019-04-14T06:19:57.330Z,3.03
2019-04-14T06:20:57.307Z,3.14
2019-04-14T06:21:57.293Z,3.08
2019-04-14T06:22:57.280Z,3.19
2019-04-14T06:23:57.266Z,3.25
2019-04-14T06:24:57.254Z,3.19
2019-04-14T06:25:57.246Z,3.26
2019-04-14T06:26:57.230Z,3.28
2019-04-14T06:27:57.213Z,3.23
2019-04-14T06:28:57.200Z,3.18
2019-04-14T06:29:57.187Z,3.21
2019-04-14T06:30:57.177Z,3.13
2019-04-14T06:31:57.161Z,3.19
2019-04-14T06:32:57.147Z,3.19
2019-04-14T06:33:57.139Z,3.16
2019-04-14T06:34:57.121Z,3.28
2019-04-14T06:35:57.107Z,3.26
2019-04-14T06:36:57.096Z,3.28
2019-04-14T06:37:57.081Z,3.25
2019-04-14T06:38:57.071Z,3.28
2019-04-14T06:39:57.055Z,3.36
2019-04-14T06:40:57.044Z,3.42
2019-04-14T06:41:57.028Z,3.47
2019-04-14T06:42:57.021Z,3.37
2019-04-14T06:43:57.003Z,3.31
2019-04-14T06:44:56.988Z,3.42
2019-04-14T06:45:56.974Z,3.29
2019-04-14T06:46:56.961Z,3.41
2019-04-14T06:47:56.948Z,3.36
2019-04-14T06:48:56.938Z,3.32
2019-04-14T06:49:56.921Z,3.47
2019-04-14T06:50:56.912Z,3.31
2019-04-14T06:51:56.896Z,3.26
2019-04-14T06:52:56.881Z,3.21
2019-04-14T06:53:56.867Z,3.14
2019-04-14T06:54:56.855Z,3.19
2019-04-14T06:55:56.841Z,3.21
2019-04-14T06:56:56.827Z,3.11
2019-04-14T06:57:56.815Z,3.11
2019-04-14T06:58:56.801Z,3.07
2019-04-14T06:59:56.789Z,3.08
2019-04-14T07:00:56.782Z,3.13
2019-04-14T07:01:59.128Z,3.13
2019-04-14T07:02:56.747Z,3.10
2019-04-14T07:03:56.733Z,3.10
2019-04-14T07:04:56.720Z,3.18
2019-04-14T07:05:56.706Z,3.16
2019-04-14T07:06:56.692Z,3.22
2019-04-14T07:07:57.567Z,3.10
2019-04-14T07:08:56.668Z,3.05
2019-04-14T07:09:56.653Z,3.11
2019-04-14T07:10:56.638Z,3.07
2019-04-14T07:11:56.640Z,3.04
2019-04-14T07:12:56.611Z,3.08
2019-04-14T07:13:56.596Z,3.13
2019-04-14T07:14:56.583Z,3.07
2019-04-14T07:15:56.600Z,3.11
2019-04-14T07:16:56.558Z,3.14
2019-04-14T07:17:56.544Z,3.14
2019-04-14T07:18:56.582Z,3.29
2019-04-14T07:20:02.348Z,3.42
2019-04-14T07:20:56.507Z,3.44
2019-04-14T07:21:56.489Z,3.40
2019-04-14T07:22:56.475Z,3.50
2019-04-14T07:23:56.463Z,3.47
2019-04-14T07:24:56.449Z,3.58
2019-04-14T07:25:56.436Z,3.55
2019-04-14T07:26:56.428Z,3.59
2019-04-14T07:27:56.409Z,3.65
2019-04-14T07:28:57.121Z,3.65
2019-04-14T07:29:56.383Z,3.68
2019-04-14T07:30:56.371Z,3.74
2019-04-14T07:31:56.358Z,3.80
2019-04-14T07:32:56.346Z,3.76
2019-04-14T07:33:56.332Z,3.88
2019-04-14T07:34:56.325Z,3.77
2019-04-14T07:35:56.306Z,3.77
2019-04-14T07:36:56.296Z,3.88
2019-04-14T07:37:56.285Z,3.94
2019-04-14T07:38:56.268Z,3.96
2019-04-14T07:39:56.256Z,4.02
2019-04-14T07:40:56.242Z,4.17
2019-04-14T07:41:56.229Z,4.35
2019-04-14T07:42:56.218Z,4.44
2019-04-14T07:43:56.210Z,4.58
2019-04-14T07:44:56.195Z,4.60
2019-04-14T07:45:56.181Z,4.70
2019-04-14T07:46:56.169Z,4.74
2019-04-14T07:47:56.158Z,4.75
2019-04-14T07:48:56.146Z,4.77
2019-04-14T07:49:56.134Z,4.82
2019-04-14T07:50:56.122Z,4.78
2019-04-14T07:51:56.112Z,4.74
2019-04-14T07:52:56.100Z,4.68
2019-04-14T07:53:56.091Z,4.77
2019-04-14T07:54:56.076Z,4.68
2019-04-14T07:55:56.065Z,4.58
2019-04-14T07:56:56.054Z,4.59
2019-04-14T07:57:56.043Z,4.50
2019-04-14T07:58:56.029Z,4.42
2019-04-14T07:59:56.019Z,4.40
2019-04-14T08:00:56.006Z,4.35
2019-04-14T08:01:55.995Z,4.41
2019-04-14T08:02:55.986Z,4.34
2019-04-14T08:03:55.973Z,4.28
2019-04-14T08:04:55.959Z,4.28
2019-04-14T08:05:55.945Z,4.35
2019-04-14T08:06:55.942Z,4.37
2019-04-14T08:07:55.922Z,4.44
2019-04-14T08:08:55.911Z,4.35
2019-04-14T08:09:55.945Z,4.30
2019-04-14T08:10:55.884Z,4.28
2019-04-14T08:11:55.872Z,4.34
2019-04-14T08:12:55.866Z,4.34
2019-04-14T08:13:55.847Z,4.38
2019-04-14T08:14:55.836Z,4.56
2019-04-14T08:15:55.823Z,4.49
2019-04-14T08:16:55.810Z,4.52
2019-04-14T08:17:55.797Z,4.53
2019-04-14T08:18:55.843Z,4.59
2019-04-14T08:19:55.774Z,4.53
2019-04-14T08:20:55.762Z,4.62
2019-04-14T08:21:55.750Z,4.67
2019-04-14T08:22:57.757Z,4.71
2019-04-14T08:23:55.725Z,4.84
2019-04-14T08:24:55.715Z,4.78
2019-04-14T08:25:55.700Z,4.92
2019-04-14T08:26:55.689Z,4.99
2019-04-14T08:27:55.677Z,5.00
2019-04-14T08:28:55.671Z,5.07
2019-04-14T08:29:55.653Z,5.14
2019-04-14T08:30:55.643Z,5.15
2019-04-14T08:31:55.630Z,5.21
2019-04-14T08:32:55.620Z,5.15
2019-04-14T08:33:55.605Z,5.20
2019-04-14T08:34:55.595Z,5.30
2019-04-14T08:35:55.582Z,5.32
2019-04-14T08:36:55.571Z,5.35
2019-04-14T08:37:55.558Z,5.29
2019-04-14T08:38:55.550Z,5.33
2019-04-14T08:39:55.536Z,5.35
2019-04-14T08:40:55.525Z,5.43
2019-04-14T08:41:55.513Z,5.33
2019-04-14T08:42:55.501Z,5.47
2019-04-14T08:43:55.489Z,5.53
2019-04-14T08:44:55.481Z,5.61
2019-04-14T08:45:55.467Z,5.73
2019-04-14T08:46:55.455Z,5.79
2019-04-14T08:47:55.445Z,6.01
2019-04-14T08:48:55.433Z,6.12
2019-04-14T08:49:55.422Z,6.30
2019-04-14T08:50:55.412Z,6.52
2019-04-14T08:51:55.403Z,6.72
2019-04-14T08:52:55.392Z,7.00
2019-04-14T08:53:55.382Z,7.23
2019-04-14T08:54:55.373Z,7.25
2019-04-14T08:55:55.364Z,7.25
2019-04-14T08:56:55.359Z,7.31
2019-04-14T08:57:55.346Z,7.47
2019-04-14T08:58:55.339Z,7.69
2019-04-14T08:59:55.331Z,7.94
2019-04-14T09:00:55.324Z,8.10
2019-04-14T09:01:55.315Z,8.06
2019-04-14T09:02:55.308Z,8.05
2019-04-14T09:03:55.301Z,7.87
2019-04-14T09:04:55.296Z,7.38
2019-04-14T09:05:55.286Z,7.24
2019-04-14T09:06:55.279Z,7.36
2019-04-14T09:07:55.272Z,7.58
2019-04-14T09:08:55.268Z,7.87
2019-04-14T09:09:55.263Z,7.90
2019-04-14T09:10:55.253Z,8.15
2019-04-14T09:11:55.309Z,8.51
2019-04-14T09:12:55.243Z,8.87
2019-04-14T09:13:55.237Z,9.02
2019-04-14T09:14:57.341Z,9.03
2019-04-14T09:15:55.229Z,8.95
2019-04-14T09:16:55.225Z,9.23
2019-04-14T09:17:55.220Z,9.36
2019-04-14T09:19:06.909Z,9.65
2019-04-14T09:19:55.214Z,9.77
2019-04-14T09:20:55.234Z,9.94
2019-04-14T09:21:55.205Z,9.89
2019-04-14T09:22:55.202Z,9.76
2019-04-14T09:23:56.912Z,9.80
2019-04-14T09:24:55.211Z,9.94
2019-04-14T09:25:55.190Z,10.16
2019-04-14T09:26:55.191Z,10.15
2019-04-14T09:27:55.184Z,9.91
2019-04-14T09:28:55.180Z,9.58
2019-04-14T09:29:55.175Z,9.31
2019-04-14T09:30:55.171Z,9.26
2019-04-14T09:31:55.167Z,9.56
2019-04-14T09:32:55.163Z,9.84
2019-04-14T09:33:55.159Z,10.12
2019-04-14T09:34:55.161Z,10.17
2019-04-14T09:35:55.152Z,10.22
2019-04-14T09:36:55.164Z,10.35
2019-04-14T09:37:55.146Z,10.71
2019-04-14T09:38:55.145Z,10.69
2019-04-14T09:39:55.142Z,10.72
2019-04-14T09:40:55.140Z,10.87
2019-04-14T09:41:55.137Z,11.14
2019-04-14T09:42:57.659Z,11.52
2019-04-14T09:43:55.135Z,11.11
2019-04-14T09:44:55.136Z,10.93
2019-04-14T09:45:55.131Z,11.07
2019-04-14T09:46:55.132Z,10.75
2019-04-14T09:47:55.129Z,10.74
2019-04-14T09:48:55.127Z,10.86
2019-04-14T09:49:55.125Z,10.86
2019-04-14T09:51:04.555Z,11.02
2019-04-14T09:51:55.122Z,10.97
2019-04-14T09:52:55.119Z,11.02
2019-04-14T09:53:55.119Z,11.11
2019-04-14T09:54:55.118Z,11.22
2019-04-14T09:55:55.112Z,11.22
2019-04-14T09:56:55.109Z,11.18
2019-04-14T09:57:55.105Z,11.08
2019-04-14T09:58:55.103Z,10.82
2019-04-14T09:59:55.104Z,10.56
2019-04-14T10:00:55.097Z,10.56
2019-04-14T10:01:55.092Z,10.40
2019-04-14T10:02:55.089Z,10.35
2019-04-14T10:03:55.084Z,10.37
2019-04-14T10:04:55.080Z,10.04
2019-04-14T10:05:55.075Z,9.79
2019-04-14T10:06:55.073Z,9.68
2019-04-14T10:07:55.066Z,9.80
2019-04-14T10:08:55.063Z,9.98
2019-04-14T10:09:55.054Z,10.01
2019-04-14T10:10:55.049Z,9.91
2019-04-14T10:11:56.497Z,9.83
2019-04-14T10:12:55.038Z,9.94
2019-04-14T10:13:55.033Z,9.97
2019-04-14T10:14:55.027Z,10.13
2019-04-14T10:15:55.022Z,10.16
2019-04-14T10:16:55.017Z,10.33
2019-04-14T10:17:55.014Z,10.69
2019-04-14T10:18:55.007Z,10.59
2019-04-14T10:19:55.002Z,10.57
2019-04-14T10:20:54.998Z,10.59
2019-04-14T10:21:54.993Z,11.17
2019-04-14T10:22:54.990Z,11.57
2019-04-14T10:23:54.985Z,11.84
2019-04-14T10:24:54.982Z,11.63
2019-04-14T10:25:54.978Z,11.57
2019-04-14T10:26:54.975Z,11.44
2019-04-14T10:27:54.971Z,11.25
2019-04-14T10:28:54.968Z,11.04
2019-04-14T10:29:54.963Z,10.79
2019-04-14T10:30:54.960Z,10.63
2019-04-14T10:31:54.955Z,10.56
2019-04-14T10:32:54.953Z,10.23
2019-04-14T10:33:54.945Z,10.22
2019-04-14T10:34:54.941Z,10.25
2019-04-14T10:35:54.938Z,10.30
2019-04-14T10:36:54.930Z,10.41
2019-04-14T10:37:54.923Z,10.48
2019-04-14T10:38:54.922Z,10.57
2019-04-14T10:39:54.913Z,10.59
2019-04-14T10:40:54.958Z,10.71
2019-04-14T10:41:54.922Z,10.94
2019-04-14T10:42:54.897Z,11.05
2019-04-14T10:43:54.892Z,11.37
2019-04-14T10:44:54.888Z,11.66
2019-04-14T10:45:54.884Z,12.18
2019-04-14T10:46:54.890Z,12.60
2019-04-14T10:47:54.875Z,12.90
2019-04-14T10:48:54.878Z,13.22
2019-04-14T10:49:54.869Z,12.86
2019-04-14T10:50:54.867Z,12.42
2019-04-14T10:51:54.863Z,12.03
2019-04-14T10:52:54.861Z,11.84
2019-04-14T10:53:54.858Z,11.99
2019-04-14T10:54:54.855Z,11.99
2019-04-14T10:55:54.851Z,12.28
2019-04-14T10:56:54.850Z,12.46
2019-04-14T10:57:54.848Z,12.42
2019-04-14T10:58:54.842Z,12.06
2019-04-14T10:59:54.840Z,11.68
2019-04-14T11:00:54.843Z,11.62
2019-04-14T11:01:54.833Z,11.69
2019-04-14T11:02:54.831Z,12.04
2019-04-14T11:03:54.829Z,12.25
2019-04-14T11:04:54.825Z,12.18
2019-04-14T11:05:54.821Z,12.31
2019-04-14T11:06:54.819Z,12.45
2019-04-14T11:07:54.818Z,12.68
2019-04-14T11:08:54.814Z,12.87
2019-04-14T11:09:54.816Z,12.82
2019-04-14T11:10:54.811Z,13.09
2019-04-14T11:11:54.815Z,13.28
2019-04-14T11:12:54.812Z,13.65
2019-04-14T11:13:54.807Z,13.86
2019-04-14T11:14:54.807Z,14.08
2019-04-14T11:15:54.807Z,14.25
2019-04-14T11:16:54.813Z,14.30
2019-04-14T11:17:54.808Z,13.77
2019-04-14T11:18:54.808Z,13.19
2019-04-14T11:19:54.807Z,12.57
2019-04-14T11:20:54.806Z,12.27
2019-04-14T11:21:54.804Z,12.29
2019-04-14T11:23:03.101Z,12.50
2019-04-14T11:23:54.808Z,12.04
2019-04-14T11:24:54.801Z,12.13
2019-04-14T11:25:54.800Z,11.99
2019-04-14T11:26:54.795Z,11.55
2019-04-14T11:27:54.793Z,11.40
2019-04-14T11:28:54.793Z,11.11
2019-04-14T11:29:54.787Z,11.11
2019-04-14T11:30:54.785Z,11.22
2019-04-14T11:31:54.781Z,11.41
2019-04-14T11:32:54.776Z,11.81
2019-04-14T11:33:54.774Z,12.32
2019-04-14T11:34:54.770Z,12.87
2019-04-14T11:35:54.847Z,13.28
2019-04-14T11:36:54.763Z,13.56
2019-04-14T11:37:54.760Z,13.87
2019-04-14T11:38:54.758Z,14.08
2019-04-14T11:39:54.757Z,13.75
2019-04-14T11:40:54.756Z,13.30
2019-04-14T11:41:54.754Z,13.23
2019-04-14T11:42:54.756Z,13.41
2019-04-14T11:43:54.765Z,13.92
2019-04-14T11:44:54.760Z,14.55
2019-04-14T11:45:54.753Z,14.94
2019-04-14T11:46:54.756Z,14.70
2019-04-14T11:47:54.772Z,14.30
2019-04-14T11:48:54.756Z,13.77
2019-04-14T11:49:54.754Z,13.37
2019-04-14T11:50:54.760Z,13.01
2019-04-14T11:51:55.838Z,12.75
2019-04-14T11:52:54.754Z,12.75
2019-04-14T11:53:54.751Z,12.82
2019-04-14T11:54:54.752Z,12.82
2019-04-14T11:55:54.744Z,13.00
2019-04-14T11:56:54.745Z,13.09
2019-04-14T11:57:54.743Z,12.90
2019-04-14T11:58:54.743Z,12.64
2019-04-14T11:59:54.736Z,12.68
2019-04-14T12:00:54.744Z,12.90
2019-04-14T12:01:54.730Z,13.53
2019-04-14T12:02:54.744Z,13.89
2019-04-14T12:03:54.728Z,14.35
2019-04-14T12:04:54.726Z,14.99
2019-04-14T12:05:54.728Z,15.11
2019-04-14T12:06:54.726Z,15.04
2019-04-14T12:07:54.726Z,14.66
2019-04-14T12:08:54.727Z,14.28
2019-04-14T12:09:54.726Z,13.92
2019-04-14T12:10:54.783Z,13.11
2019-04-14T12:11:54.734Z,12.58
2019-04-14T12:12:54.720Z,12.55
2019-04-14T12:13:54.717Z,12.54
2019-04-14T12:14:54.716Z,12.57
2019-04-14T12:15:54.711Z,12.76
2019-04-14T12:16:54.714Z,13.27
2019-04-14T12:17:54.705Z,13.70
2019-04-14T12:18:54.704Z,13.85
2019-04-14T12:19:54.701Z,14.07
2019-04-14T12:20:54.697Z,14.35
2019-04-14T12:22:07.407Z,14.69
2019-04-14T12:22:54.751Z,15.07
2019-04-14T12:23:54.692Z,14.94
2019-04-14T12:24:54.691Z,14.10
2019-04-14T12:26:04.710Z,13.27
2019-04-14T12:26:54.687Z,12.86
2019-04-14T12:27:55.735Z,12.64
2019-04-14T12:28:55.806Z,12.68
2019-04-14T12:29:54.677Z,12.67
2019-04-14T12:30:55.467Z,12.79
2019-04-14T12:31:55.258Z,13.42
2019-04-14T12:32:54.668Z,14.30
2019-04-14T12:33:54.663Z,15.06
2019-04-14T12:34:54.660Z,15.75
2019-04-14T12:35:54.658Z,15.61
2019-04-14T12:36:54.657Z,15.42
2019-04-14T12:37:54.654Z,15.07
2019-04-14T12:38:54.652Z,14.63
2019-04-14T12:39:54.654Z,14.25
2019-04-14T12:40:56.327Z,14.04
2019-04-14T12:41:54.644Z,13.57
2019-04-14T12:42:54.642Z,13.56
2019-04-14T12:43:54.639Z,13.71
2019-04-14T12:44:54.635Z,13.67
2019-04-14T12:45:54.634Z,13.20
2019-04-14T12:46:54.629Z,12.85
2019-04-14T12:47:54.624Z,12.43
2019-04-14T12:48:54.621Z,12.10
2019-04-14T12:49:54.664Z,11.95
2019-04-14T12:50:54.611Z,11.90
2019-04-14T12:51:54.606Z,12.04
2019-04-14T12:52:54.602Z,12.15
2019-04-14T12:53:54.598Z,12.85
2019-04-14T12:54:54.591Z,13.37
2019-04-14T12:55:54.628Z,13.25
2019-04-14T12:56:54.582Z,13.09
2019-04-14T12:57:54.577Z,12.87
2019-04-14T12:58:54.571Z,12.67
2019-04-14T12:59:54.568Z,12.76
2019-04-14T13:00:54.561Z,13.23
2019-04-14T13:01:54.555Z,14.10
2019-04-14T13:02:54.550Z,14.55
2019-04-14T13:03:54.548Z,15.03
2019-04-14T13:04:55.453Z,15.72
2019-04-14T13:05:54.536Z,16.42
2019-04-14T13:06:54.533Z,16.43
2019-04-14T13:07:54.529Z,16.47
2019-04-14T13:08:54.529Z,16.90
2019-04-14T13:09:54.523Z,17.33
2019-04-14T13:10:54.519Z,17.36
2019-04-14T13:11:54.516Z,17.22
2019-04-14T13:12:54.514Z,16.39
2019-04-14T13:13:54.510Z,16.01
2019-04-14T13:14:54.507Z,16.04
2019-04-14T13:15:54.505Z,15.75
2019-04-14T13:16:54.501Z,16.00
2019-04-14T13:17:54.497Z,15.97
2019-04-14T13:18:54.494Z,15.65
2019-04-14T13:19:54.490Z,14.72
2019-04-14T13:20:54.487Z,14.15
2019-04-14T13:21:54.489Z,13.49
2019-04-14T13:22:54.478Z,13.72
2019-04-14T13:23:54.474Z,14.47
2019-04-14T13:24:54.478Z,15.39
2019-04-14T13:25:54.465Z,16.09